Time;durP1;ratioP1;P1;durP2;ratioP2;P2;SDS_P1;SDS_P2;PMS_P1;PMS_P2;Temp;Humidity;BMP_temperature;BMP_pressure;BME280_temperature;BME280_humidity;BME280_pressure;Samples;Min_cycle;Max_cycle;Signal;HPM_P1;HPM_P2
2022/03/28 00:01:27;;;;;;;43.28;13.57;;;;;;;;;;5041873;28;20032;-77
2022/03/28 00:03:52;;;;;;;37.60;13.70;;;;;;;;;;5035400;28;20364;-77
2022/03/28 00:06:18;;;;;;;37.83;13.98;;;;;;;;;;5034596;28;20095;-78
2022/03/28 00:08:43;;;;;;;43.00;14.23;;;;;;;;;;5035726;28;20029;-77
2022/03/28 00:11:09;;;;;;;32.45;12.82;;;;;;;;;;5035644;28;20030;-78
2022/03/28 00:13:35;;;;;;;35.50;13.55;;;;;;;;;;5017813;28;20041;-78
2022/03/28 00:16:01;;;;;;;34.08;12.90;;;;;;;;;;5026522;28;20401;-77
2022/03/28 00:18:26;;;;;;;34.22;12.90;;;;;;;;;;5035890;28;20044;-78
2022/03/28 00:20:53;;;;;;;33.60;13.88;;;;;;;;;;5019963;28;20026;-77
2022/03/28 00:23:19;;;;;;;32.83;13.40;;;;;;;;;;5039192;28;20045;-77
2022/03/28 00:25:45;;;;;;;33.67;14.32;;;;;;;;;;5017729;28;20033;-77
2022/03/28 00:28:11;;;;;;;35.00;14.77;;;;;;;;;;5035322;28;20029;-78
2022/03/28 00:30:37;;;;;;;36.00;14.18;;;;;;;;;;5035113;28;20113;-78
2022/03/28 00:33:03;;;;;;;51.22;16.40;;;;;;;;;;5035112;28;20116;-77
2022/03/28 00:35:29;;;;;;;41.50;14.55;;;;;;;;;;5036065;28;20029;-78
2022/03/28 00:37:55;;;;;;;35.22;14.48;;;;;;;;;;5035266;28;20114;-77
2022/03/28 00:40:20;;;;;;;32.80;13.68;;;;;;;;;;5033864;28;20029;-77
2022/03/28 00:42:48;;;;;;;34.00;13.57;;;;;;;;;;5037542;28;20037;-77
2022/03/28 00:45:13;;;;;;;27.70;12.43;;;;;;;;;;5034852;28;20113;-78
2022/03/28 00:47:39;;;;;;;33.17;13.75;;;;;;;;;;5017067;28;20123;-76
2022/03/28 00:50:05;;;;;;;30.35;13.25;;;;;;;;;;5033630;28;20103;-77
2022/03/28 00:52:30;;;;;;;32.72;13.70;;;;;;;;;;5035078;28;20091;-78
2022/03/28 00:54:57;;;;;;;37.28;14.13;;;;;;;;;;5034100;28;20033;-77
2022/03/28 00:57:22;;;;;;;33.55;13.80;;;;;;;;;;5033932;28;20025;-77
2022/03/28 00:59:48;;;;;;;36.75;14.88;;;;;;;;;;5034879;28;20026;-77
2022/03/28 01:02:13;;;;;;;38.47;14.68;;;;;;;;;;5055479;28;20041;-76
2022/03/28 01:04:39;;;;;;;36.38;14.52;;;;;;;;;;5034858;28;20041;-78
2022/03/28 01:07:07;;;;;;;40.22;14.27;;;;;;;;;;5034699;28;20029;-77
2022/03/28 01:09:34;;;;;;;38.05;15.23;;;;;;;;;;5016973;28;20140;-77
2022/03/28 01:11:59;;;;;;;36.33;14.77;;;;;;;;;;5017183;28;20041;-76
2022/03/28 01:14:25;;;;;;;38.83;15.57;;;;;;;;;;5033137;28;20473;-76
2022/03/28 01:19:35;;;;;;;38.88;15.73;;;;;;;;;;5034474;28;20036;-76
2022/03/28 01:22:00;;;;;;;38.72;15.55;;;;;;;;;;5041206;28;20455;-76
2022/03/28 01:24:26;;;;;;;41.80;15.32;;;;;;;;;;5039732;28;20025;-78
2022/03/28 01:26:51;;;;;;;46.67;15.73;;;;;;;;;;5033418;28;20087;-78
2022/03/28 01:29:17;;;;;;;36.30;14.95;;;;;;;;;;5017020;28;20030;-77
2022/03/28 01:31:42;;;;;;;36.33;15.98;;;;;;;;;;5033280;28;20044;-78
2022/03/28 01:34:16;;;;;;;40.83;14.75;;;;;;;;;;5034690;28;20428;-77
2022/03/28 01:36:44;;;;;;;38.00;15.20;;;;;;;;;;5034337;28;20034;-77
2022/03/28 01:39:10;;;;;;;36.25;14.85;;;;;;;;;;5034132;28;20029;-76
2022/03/28 01:41:35;;;;;;;42.45;17.58;;;;;;;;;;5033915;28;20033;-77
2022/03/28 01:44:01;;;;;;;39.88;16.77;;;;;;;;;;5042126;28;20359;-77
2022/03/28 01:46:26;;;;;;;46.40;18.20;;;;;;;;;;5033028;28;20033;-78
2022/03/28 01:48:52;;;;;;;46.95;17.92;;;;;;;;;;5034559;28;20034;-78
2022/03/28 01:51:17;;;;;;;43.10;17.75;;;;;;;;;;5034054;28;20029;-77
2022/03/28 01:53:43;;;;;;;42.05;17.42;;;;;;;;;;5033957;28;20069;-77
2022/03/28 01:56:08;;;;;;;52.70;16.33;;;;;;;;;;5032439;28;20041;-78
2022/03/28 01:58:34;;;;;;;42.13;16.23;;;;;;;;;;5034826;28;20037;-77
2022/03/28 02:00:59;;;;;;;45.85;17.65;;;;;;;;;;5038087;28;20462;-77
2022/03/28 02:03:25;;;;;;;44.15;16.77;;;;;;;;;;5040742;28;20019;-77
2022/03/28 02:05:50;;;;;;;49.53;17.02;;;;;;;;;;5043091;28;20440;-77
2022/03/28 02:08:15;;;;;;;54.15;17.63;;;;;;;;;;5038080;28;20438;-77
2022/03/28 02:10:41;;;;;;;56.90;18.90;;;;;;;;;;5038213;28;20029;-78
2022/03/28 02:13:06;;;;;;;54.88;17.55;;;;;;;;;;5036485;28;20044;-77
2022/03/28 02:15:32;;;;;;;57.13;18.85;;;;;;;;;;5037744;28;20042;-77
2022/03/28 02:17:58;;;;;;;45.78;18.27;;;;;;;;;;5037795;28;20037;-77
2022/03/28 02:20:24;;;;;;;39.22;15.88;;;;;;;;;;5020204;28;20032;-77
2022/03/28 02:22:50;;;;;;;52.03;16.52;;;;;;;;;;5037664;28;20029;-77
2022/03/28 02:25:15;;;;;;;47.08;16.73;;;;;;;;;;5044127;28;20033;-78
2022/03/28 02:27:41;;;;;;;53.83;16.23;;;;;;;;;;5019906;28;20091;-78
2022/03/28 02:30:08;;;;;;;48.25;15.70;;;;;;;;;;5003615;28;20038;-77
2022/03/28 02:32:34;;;;;;;47.80;15.90;;;;;;;;;;5037926;28;20040;-77
2022/03/28 02:34:59;;;;;;;44.85;16.27;;;;;;;;;;5037394;28;20033;-77
2022/03/28 02:37:27;;;;;;;46.25;17.25;;;;;;;;;;5036453;28;20029;-78
2022/03/28 02:39:53;;;;;;;47.88;16.90;;;;;;;;;;5019885;28;20475;-77
2022/03/28 02:42:22;;;;;;;54.85;18.10;;;;;;;;;;5019739;28;20029;-78
2022/03/28 02:44:51;;;;;;;59.60;19.52;;;;;;;;;;5024074;28;20021;-76
2022/03/28 02:47:19;;;;;;;50.85;18.23;;;;;;;;;;5022197;28;20026;-77
2022/03/28 02:49:45;;;;;;;51.10;17.90;;;;;;;;;;5019676;28;20457;-77
2022/03/28 02:52:11;;;;;;;59.97;19.52;;;;;;;;;;5037077;28;20025;-78
2022/03/28 02:54:36;;;;;;;55.50;18.60;;;;;;;;;;5037198;28;20025;-77
2022/03/28 02:57:02;;;;;;;57.90;19.35;;;;;;;;;;5019330;28;20505;-77
2022/03/28 02:59:27;;;;;;;57.47;18.02;;;;;;;;;;5019429;28;20030;-77
2022/03/28 03:01:54;;;;;;;43.35;17.00;;;;;;;;;;5036985;28;20063;-77
2022/03/28 03:04:20;;;;;;;62.83;19.08;;;;;;;;;;5019882;28;20435;-77
2022/03/28 03:06:45;;;;;;;52.03;19.40;;;;;;;;;;5043992;28;20040;-77
2022/03/28 03:09:11;;;;;;;48.70;17.83;;;;;;;;;;5036163;28;20033;-77
2022/03/28 03:11:36;;;;;;;43.72;19.23;;;;;;;;;;5019015;28;20486;-77
2022/03/28 03:14:05;;;;;;;47.17;18.35;;;;;;;;;;5036959;28;20025;-78
2022/03/28 03:16:30;;;;;;;51.72;16.25;;;;;;;;;;5036551;28;20451;-77
2022/03/28 03:18:56;;;;;;;52.40;17.25;;;;;;;;;;5019064;28;20029;-77
2022/03/28 03:21:21;;;;;;;47.83;16.02;;;;;;;;;;5036612;28;20061;-77
2022/03/28 03:23:47;;;;;;;51.00;15.35;;;;;;;;;;5018738;28;20065;-77
2022/03/28 03:26:12;;;;;;;44.13;14.27;;;;;;;;;;5042055;28;20029;-77
2022/03/28 03:28:38;;;;;;;39.35;15.00;;;;;;;;;;5038122;28;20052;-77
2022/03/28 03:31:03;;;;;;;47.28;15.85;;;;;;;;;;5037042;28;20030;-78
2022/03/28 03:33:29;;;;;;;52.03;14.93;;;;;;;;;;5019122;28;20033;-78
2022/03/28 03:35:55;;;;;;;51.67;15.20;;;;;;;;;;5036168;28;20501;-78
2022/03/28 03:38:20;;;;;;;36.38;15.65;;;;;;;;;;5036282;28;20069;-78
2022/03/28 03:40:46;;;;;;;50.75;15.65;;;;;;;;;;5035871;28;20363;-77
2022/03/28 03:43:12;;;;;;;53.33;16.77;;;;;;;;;;5036159;28;20112;-77
2022/03/28 03:45:37;;;;;;;45.70;15.43;;;;;;;;;;5037813;28;20030;-76
2022/03/28 03:48:03;;;;;;;51.85;16.90;;;;;;;;;;5042239;28;20457;-77
2022/03/28 03:50:29;;;;;;;57.28;20.30;;;;;;;;;;5034550;28;20436;-77
2022/03/28 03:52:55;;;;;;;49.67;17.88;;;;;;;;;;5018148;28;20116;-77
2022/03/28 03:55:20;;;;;;;59.33;18.30;;;;;;;;;;5035879;28;20033;-77
2022/03/28 03:57:46;;;;;;;56.42;17.15;;;;;;;;;;5035360;28;20092;-77
2022/03/28 04:00:12;;;;;;;61.28;19.05;;;;;;;;;;5036171;28;20094;-77
2022/03/28 04:02:38;;;;;;;50.40;18.23;;;;;;;;;;5036029;28;20120;-76
2022/03/28 04:05:04;;;;;;;80.50;19.25;;;;;;;;;;5035652;28;20037;-74
2022/03/28 04:07:30;;;;;;;67.32;19.15;;;;;;;;;;5027277;28;20083;-76
2022/03/28 04:09:59;;;;;;;64.20;21.63;;;;;;;;;;5036300;28;20030;-75
2022/03/28 04:12:24;;;;;;;69.93;21.92;;;;;;;;;;5018106;28;20030;-76
2022/03/28 04:14:50;;;;;;;67.63;22.38;;;;;;;;;;5017876;28;20183;-75
2022/03/28 04:17:16;;;;;;;70.82;25.05;;;;;;;;;;5035570;28;20032;-74
2022/03/28 04:19:42;;;;;;;74.68;26.15;;;;;;;;;;5035474;28;20023;-76
2022/03/28 04:22:07;;;;;;;81.25;23.73;;;;;;;;;;5034335;28;20108;-76
2022/03/28 04:24:32;;;;;;;77.78;23.92;;;;;;;;;;5035199;28;20552;-77
2022/03/28 04:26:58;;;;;;;83.43;24.50;;;;;;;;;;5041111;28;20037;-76
2022/03/28 04:29:24;;;;;;;76.10;23.98;;;;;;;;;;5024049;28;20029;-75
2022/03/28 04:31:49;;;;;;;91.25;25.52;;;;;;;;;;5011529;28;20042;-75
2022/03/28 04:34:15;;;;;;;69.45;22.80;;;;;;;;;;5030213;28;20053;-76
2022/03/28 04:36:40;;;;;;;91.13;25.95;;;;;;;;;;5033477;28;20033;-75
2022/03/28 04:39:05;;;;;;;72.40;25.88;;;;;;;;;;5033402;28;20106;-75
2022/03/28 04:41:31;;;;;;;81.88;31.65;;;;;;;;;;5033142;28;20041;-77
2022/03/28 04:43:57;;;;;;;81.57;29.08;;;;;;;;;;5031057;28;20120;-75
2022/03/28 04:46:23;;;;;;;65.78;24.48;;;;;;;;;;5031470;28;20144;-75
2022/03/28 04:48:48;;;;;;;62.28;21.25;;;;;;;;;;5037103;28;20029;-76
2022/03/28 04:51:15;;;;;;;66.22;21.42;;;;;;;;;;5032524;28;20079;-74
2022/03/28 04:53:40;;;;;;;58.55;19.70;;;;;;;;;;5029604;28;20137;-76
2022/03/28 04:56:06;;;;;;;62.13;20.80;;;;;;;;;;5007238;28;20454;-74
2022/03/28 04:58:31;;;;;;;86.03;21.02;;;;;;;;;;5002134;28;20444;-74
2022/03/28 05:00:57;;;;;;;67.70;21.85;;;;;;;;;;5014864;28;20094;-76
2022/03/28 05:03:22;;;;;;;68.40;22.42;;;;;;;;;;5036671;28;20095;-75
2022/03/28 05:05:48;;;;;;;101.38;21.40;;;;;;;;;;5033818;28;20032;-76
2022/03/28 05:08:13;;;;;;;75.15;21.00;;;;;;;;;;5029300;28;20134;-76
2022/03/28 05:10:40;;;;;;;89.03;21.20;;;;;;;;;;5035896;28;20429;-77
2022/03/28 05:13:10;;;;;;;64.47;21.23;;;;;;;;;;5028133;28;20033;-79
2022/03/28 05:15:35;;;;;;;84.13;22.77;;;;;;;;;;5027434;28;20040;-78
2022/03/28 05:18:01;;;;;;;70.07;21.40;;;;;;;;;;5046145;28;20082;-77
2022/03/28 05:20:27;;;;;;;77.60;24.60;;;;;;;;;;5042620;28;20051;-78
2022/03/28 05:22:53;;;;;;;76.13;22.95;;;;;;;;;;5032033;28;20601;-79
2022/03/28 05:25:18;;;;;;;92.97;23.88;;;;;;;;;;5049004;28;20035;-77
2022/03/28 05:27:50;;;;;;;67.75;22.40;;;;;;;;;;5041416;28;20063;-77
2022/03/28 05:30:17;;;;;;;63.67;22.50;;;;;;;;;;5046748;28;20125;-76
2022/03/28 05:32:43;;;;;;;73.13;22.70;;;;;;;;;;5034654;28;20529;-77
2022/03/28 05:35:10;;;;;;;72.22;22.73;;;;;;;;;;5050464;28;20037;-76
2022/03/28 05:37:35;;;;;;;76.53;22.38;;;;;;;;;;5049926;28;20040;-75
2022/03/28 05:40:02;;;;;;;84.57;29.88;;;;;;;;;;5045906;28;20041;-73
2022/03/28 05:42:28;;;;;;;74.13;21.50;;;;;;;;;;5032984;28;20048;-73
2022/03/28 05:44:54;;;;;;;76.47;20.48;;;;;;;;;;5045078;28;20029;-76
2022/03/28 05:47:19;;;;;;;60.97;18.83;;;;;;;;;;5032977;28;20036;-78
2022/03/28 05:49:45;;;;;;;62.53;19.98;;;;;;;;;;5044034;28;20029;-78
2022/03/28 05:52:10;;;;;;;55.95;18.00;;;;;;;;;;5053237;28;20025;-77
2022/03/28 05:54:36;;;;;;;60.40;19.58;;;;;;;;;;5051735;28;20025;-75
2022/03/28 05:57:02;;;;;;;68.68;18.77;;;;;;;;;;5050644;28;20229;-77
2022/03/28 05:59:27;;;;;;;56.60;18.77;;;;;;;;;;5046917;28;20107;-78
2022/03/28 06:01:53;;;;;;;56.28;17.30;;;;;;;;;;5050066;28;20037;-77
2022/03/28 06:04:19;;;;;;;51.90;17.00;;;;;;;;;;5051351;28;20087;-77
2022/03/28 06:06:44;;;;;;;51.17;17.13;;;;;;;;;;5033481;28;20355;-75
2022/03/28 06:09:10;;;;;;;59.25;17.42;;;;;;;;;;5045783;28;20033;-78
2022/03/28 06:11:35;;;;;;;43.47;15.65;;;;;;;;;;5036627;28;20094;-79
2022/03/28 06:14:01;;;;;;;56.58;16.77;;;;;;;;;;5042015;28;20067;-81
2022/03/28 06:16:27;;;;;;;43.13;13.32;;;;;;;;;;5022866;28;20048;-80
2022/03/28 06:18:52;;;;;;;33.58;11.35;;;;;;;;;;5014238;28;20124;-77
2022/03/28 06:21:18;;;;;;;45.78;11.52;;;;;;;;;;5025579;28;20522;-76
2022/03/28 06:23:46;;;;;;;38.28;11.13;;;;;;;;;;5016028;28;20544;-78
2022/03/28 06:26:18;;;;;;;42.58;11.02;;;;;;;;;;5007576;28;20034;-77
2022/03/28 06:28:44;;;;;;;42.35;11.68;;;;;;;;;;5021806;28;20032;-77
2022/03/28 06:31:10;;;;;;;28.45;9.27;;;;;;;;;;5031453;28;20492;-76
2022/03/28 06:33:36;;;;;;;26.85;10.38;;;;;;;;;;5024317;28;20041;-77
2022/03/28 06:36:02;;;;;;;30.48;10.02;;;;;;;;;;5004468;28;20034;-77
2022/03/28 06:38:27;;;;;;;30.23;9.63;;;;;;;;;;4985773;28;20049;-77
2022/03/28 06:40:53;;;;;;;27.08;9.73;;;;;;;;;;5029195;28;20441;-76
2022/03/28 06:43:18;;;;;;;25.77;7.93;;;;;;;;;;5013811;28;20491;-78
2022/03/28 06:45:44;;;;;;;25.95;8.13;;;;;;;;;;5015354;28;20709;-76
2022/03/28 06:48:10;;;;;;;28.35;8.18;;;;;;;;;;5012223;28;20029;-76
2022/03/28 06:50:41;;;;;;;22.50;7.97;;;;;;;;;;5020447;28;20034;-78
2022/03/28 06:53:07;;;;;;;35.40;8.80;;;;;;;;;;5010024;28;20044;-77
2022/03/28 06:55:33;;;;;;;27.75;7.68;;;;;;;;;;5029031;28;20037;-76
2022/03/28 06:57:58;;;;;;;26.85;8.30;;;;;;;;;;5020714;28;20463;-81
2022/03/28 07:00:24;;;;;;;31.80;8.77;;;;;;;;;;5019378;28;20033;-79
2022/03/28 07:02:50;;;;;;;25.23;7.03;;;;;;;;;;5015923;28;20496;-79
2022/03/28 07:05:15;;;;;;;18.45;5.97;;;;;;;;;;5011024;28;20387;-80
2022/03/28 07:07:42;;;;;;;27.02;7.00;;;;;;;;;;4994499;28;20030;-80
2022/03/28 07:10:09;;;;;;;19.85;6.90;;;;;;;;;;5019026;28;20021;-80
2022/03/28 07:12:34;;;;;;;32.38;8.68;;;;;;;;;;4998347;28;20455;-81
2022/03/28 07:15:00;;;;;;;24.58;6.30;;;;;;;;;;5011018;28;20361;-80
2022/03/28 07:17:25;;;;;;;28.98;9.30;;;;;;;;;;4995293;28;20029;-80
2022/03/28 07:19:51;;;;;;;22.10;8.32;;;;;;;;;;5012171;28;20030;-80
2022/03/28 07:22:16;;;;;;;26.70;7.07;;;;;;;;;;5012327;28;20034;-79
2022/03/28 07:24:42;;;;;;;18.40;6.80;;;;;;;;;;5014203;28;20026;-80
2022/03/28 07:27:08;;;;;;;21.02;6.45;;;;;;;;;;4996579;28;20108;-80
2022/03/28 07:29:33;;;;;;;22.73;6.13;;;;;;;;;;5013234;28;20033;-78
2022/03/28 07:31:59;;;;;;;29.70;6.05;;;;;;;;;;5020893;28;20033;-78
2022/03/28 07:34:30;;;;;;;29.23;5.75;;;;;;;;;;5014778;28;20058;-78
2022/03/28 07:36:56;;;;;;;22.10;6.20;;;;;;;;;;5007277;28;20025;-77
2022/03/28 07:39:22;;;;;;;26.50;5.82;;;;;;;;;;5032553;28;20036;-77
2022/03/28 07:41:48;;;;;;;36.17;6.97;;;;;;;;;;5013627;28;20426;-76
2022/03/28 07:44:14;;;;;;;16.98;5.85;;;;;;;;;;5029614;28;20061;-75
2022/03/28 07:46:40;;;;;;;31.25;8.68;;;;;;;;;;5014401;28;20032;-80
2022/03/28 07:49:07;;;;;;;24.55;6.47;;;;;;;;;;5013647;28;20022;-77
2022/03/28 07:51:33;;;;;;;34.65;7.15;;;;;;;;;;4998273;28;20029;-76
2022/03/28 07:53:59;;;;;;;22.65;6.40;;;;;;;;;;5030071;28;20099;-79
2022/03/28 07:56:24;;;;;;;33.10;6.47;;;;;;;;;;5003875;28;20060;-79
2022/03/28 07:58:50;;;;;;;20.60;5.80;;;;;;;;;;4995936;28;20017;-79
2022/03/28 08:01:15;;;;;;;28.88;6.45;;;;;;;;;;5012789;28;20191;-80
2022/03/28 08:03:40;;;;;;;29.15;6.50;;;;;;;;;;5027234;28;20072;-79
2022/03/28 08:06:06;;;;;;;34.15;6.60;;;;;;;;;;5028402;28;20103;-80
2022/03/28 08:08:32;;;;;;;26.83;6.65;;;;;;;;;;4997678;28;20033;-79
2022/03/28 08:10:58;;;;;;;28.27;6.22;;;;;;;;;;5032367;28;20041;-77
2022/03/28 08:13:24;;;;;;;31.60;6.38;;;;;;;;;;5013274;28;20191;-79
2022/03/28 08:15:49;;;;;;;25.80;6.40;;;;;;;;;;5021553;28;20144;-79
2022/03/28 08:18:16;;;;;;;34.30;6.95;;;;;;;;;;5030549;28;20030;-80
2022/03/28 08:20:43;;;;;;;28.67;6.95;;;;;;;;;;5013965;28;20037;-78
2022/03/28 08:23:08;;;;;;;43.90;8.82;;;;;;;;;;5031795;28;20504;-78
2022/03/28 08:25:34;;;;;;;25.52;6.70;;;;;;;;;;5031849;28;20034;-77
2022/03/28 08:27:59;;;;;;;29.48;6.65;;;;;;;;;;5032863;28;20068;-80
2022/03/28 08:30:25;;;;;;;24.83;6.30;;;;;;;;;;5035691;28;20041;-79
2022/03/28 08:32:50;;;;;;;25.83;6.65;;;;;;;;;;5022160;28;20041;-79
2022/03/28 08:35:16;;;;;;;40.15;7.13;;;;;;;;;;5033095;28;20517;-81
2022/03/28 08:37:42;;;;;;;25.17;7.00;;;;;;;;;;5033656;28;20037;-79
2022/03/28 08:40:08;;;;;;;37.50;7.40;;;;;;;;;;5039234;28;20091;-78
2022/03/28 08:42:34;;;;;;;27.45;7.65;;;;;;;;;;5034092;28;20033;-76
2022/03/28 08:44:59;;;;;;;22.33;6.82;;;;;;;;;;5033883;28;20427;-79
2022/03/28 08:47:25;;;;;;;35.05;7.10;;;;;;;;;;5024303;28;20041;-77
2022/03/28 08:49:54;;;;;;;25.23;7.00;;;;;;;;;;5036146;28;20562;-82
2022/03/28 08:52:24;;;;;;;28.15;7.25;;;;;;;;;;5043528;28;20132;-79
2022/03/28 08:54:50;;;;;;;33.80;7.07;;;;;;;;;;5004629;28;20047;-79
2022/03/28 08:57:16;;;;;;;28.27;7.53;;;;;;;;;;5034882;28;20028;-82
2022/03/28 08:59:41;;;;;;;27.00;6.40;;;;;;;;;;5035192;28;20032;-82
2022/03/28 09:02:38;;;;;;;37.33;6.93;;;;;;;;;;5052955;28;20029;-80
2022/03/28 09:05:04;;;;;;;26.10;7.50;;;;;;;;;;5051552;28;20174;-80
2022/03/28 09:07:30;;;;;;;37.17;8.02;;;;;;;;;;5051186;28;20091;-82
2022/03/28 09:09:59;;;;;;;35.13;7.82;;;;;;;;;;5051383;28;20080;-78
2022/03/28 09:12:25;;;;;;;24.90;6.95;;;;;;;;;;5039008;28;20118;-76
2022/03/28 09:14:58;;;;;;;38.45;7.70;;;;;;;;;;5012584;28;20514;-79
2022/03/28 09:17:24;;;;;;;26.30;7.88;;;;;;;;;;4994755;28;20049;-80
2022/03/28 09:19:58;;;;;;;31.10;6.95;;;;;;;;;;5013022;28;20029;-82
2022/03/28 09:22:30;;;;;;;27.08;6.88;;;;;;;;;;5001471;28;20040;-77
2022/03/28 09:25:07;;;;;;;31.35;7.32;;;;;;;;;;5031397;28;20026;-76
2022/03/28 09:27:37;;;;;;;36.40;7.28;;;;;;;;;;5002912;28;20136;-80
2022/03/28 09:30:12;;;;;;;25.63;8.50;;;;;;;;;;5025904;28;20024;-80
2022/03/28 09:32:42;;;;;;;32.80;9.75;;;;;;;;;;5029877;28;20104;-78
2022/03/28 09:35:20;;;;;;;30.40;9.70;;;;;;;;;;5021120;28;20395;-80
2022/03/28 09:38:01;;;;;;;35.15;9.45;;;;;;;;;;5004469;28;20037;-80
2022/03/28 09:40:56;;;;;;;43.97;10.88;;;;;;;;;;5032602;28;20029;-85
2022/03/28 09:43:23;;;;;;;35.72;8.77;;;;;;;;;;5002345;28;20045;-87
2022/03/28 09:45:53;;;;;;;30.30;11.82;;;;;;;;;;5002214;28;20462;-83
2022/03/28 09:48:19;;;;;;;37.08;8.55;;;;;;;;;;4997755;28;20585;-80
2022/03/28 09:50:58;;;;;;;33.20;9.68;;;;;;;;;;5033080;28;20029;-80
2022/03/28 09:53:27;;;;;;;35.95;7.85;;;;;;;;;;5037263;28;20045;-80
2022/03/28 09:55:57;;;;;;;31.75;7.05;;;;;;;;;;5032680;28;20032;-79
2022/03/28 09:58:49;;;;;;;36.97;10.45;;;;;;;;;;5009564;28;20155;-82
2022/03/28 10:01:25;;;;;;;39.58;8.98;;;;;;;;;;5022572;28;20458;-80
2022/03/28 10:04:00;;;;;;;25.55;8.00;;;;;;;;;;5012551;28;20030;-81
2022/03/28 10:06:26;;;;;;;41.17;15.88;;;;;;;;;;5012288;28;20033;-80
2022/03/28 10:08:55;;;;;;;35.58;13.60;;;;;;;;;;5028706;28;20029;-82
2022/03/28 10:11:21;;;;;;;25.92;9.38;;;;;;;;;;5015514;28;20553;-80
2022/03/28 10:13:46;;;;;;;30.98;8.60;;;;;;;;;;5018910;28;20041;-80
2022/03/28 10:16:12;;;;;;;60.75;10.63;;;;;;;;;;5022004;28;20052;-81
2022/03/28 10:18:39;;;;;;;40.95;8.65;;;;;;;;;;5024079;28;20034;-81
2022/03/28 10:21:15;;;;;;;32.55;9.52;;;;;;;;;;5006448;28;20034;-81
2022/03/28 10:23:52;;;;;;;34.08;7.80;;;;;;;;;;5016072;28;20037;-80
2022/03/28 10:26:20;;;;;;;23.23;6.93;;;;;;;;;;5014654;28;20018;-79
2022/03/28 10:29:04;;;;;;;35.42;8.82;;;;;;;;;;5006923;28;20030;-80
2022/03/28 10:31:32;;;;;;;38.25;7.88;;;;;;;;;;5012175;28;20022;-82
2022/03/28 10:34:06;;;;;;;30.27;7.40;;;;;;;;;;5022487;28;20095;-81
2022/03/28 10:36:32;;;;;;;18.60;7.10;;;;;;;;;;5034334;28;20033;-80
2022/03/28 10:39:36;;;;;;;33.35;7.07;;;;;;;;;;5016881;28;20028;-81
2022/03/28 10:42:13;;;;;;;20.02;6.47;;;;;;;;;;5034220;28;20519;-80
2022/03/28 10:44:47;;;;;;;22.23;6.70;;;;;;;;;;5028094;28;20032;-79
2022/03/28 10:47:14;;;;;;;30.42;6.70;;;;;;;;;;5031285;28;20452;-80
2022/03/28 10:49:42;;;;;;;18.75;6.32;;;;;;;;;;5022477;28;20449;-78
2022/03/28 10:52:11;;;;;;;37.00;7.32;;;;;;;;;;5028933;28;20034;-80
2022/03/28 10:54:39;;;;;;;30.10;6.97;;;;;;;;;;5037785;28;20033;-79
2022/03/28 10:57:05;;;;;;;33.95;7.70;;;;;;;;;;4997646;28;20426;-81
2022/03/28 10:59:31;;;;;;;22.65;7.68;;;;;;;;;;5032008;28;20032;-80
2022/03/28 11:01:56;;;;;;;27.13;8.25;;;;;;;;;;5033661;28;20033;-80
2022/03/28 11:04:23;;;;;;;28.83;7.60;;;;;;;;;;5040348;28;20029;-81
2022/03/28 11:07:00;;;;;;;40.35;7.97;;;;;;;;;;5023342;28;20469;-80
2022/03/28 11:09:41;;;;;;;31.55;8.30;;;;;;;;;;5032945;28;20057;-80
2022/03/28 11:12:15;;;;;;;23.23;7.90;;;;;;;;;;5035788;28;20030;-80
2022/03/28 11:15:00;;;;;;;24.85;7.35;;;;;;;;;;5007301;28;20060;-78
2022/03/28 11:17:30;;;;;;;32.85;12.40;;;;;;;;;;5034799;28;20029;-85
2022/03/28 11:20:01;;;;;;;32.40;9.65;;;;;;;;;;5004408;28;20021;-83
2022/03/28 11:22:49;;;;;;;57.47;23.70;;;;;;;;;;5020515;28;20029;-84
2022/03/28 11:25:27;;;;;;;42.78;11.15;;;;;;;;;;5036543;28;20411;-84
2022/03/28 11:28:05;;;;;;;34.13;8.80;;;;;;;;;;5036294;28;20033;-84
2022/03/28 11:30:31;;;;;;;26.23;8.70;;;;;;;;;;4999750;28;20053;-82
2022/03/28 11:32:58;;;;;;;30.23;10.85;;;;;;;;;;5006964;28;20056;-84
2022/03/28 11:35:23;;;;;;;26.60;7.75;;;;;;;;;;5026253;28;20037;-85
2022/03/28 11:37:49;;;;;;;29.13;7.00;;;;;;;;;;4985709;28;20461;-84
2022/03/28 11:40:15;;;;;;;38.13;9.07;;;;;;;;;;5018224;28;20025;-84
2022/03/28 11:42:45;;;;;;;38.13;7.60;;;;;;;;;;5019696;28;20078;-84
2022/03/28 11:45:11;;;;;;;;;;;;;;;;;;4986905;28;20122;-78
2022/03/28 11:47:41;;;;;;;48.65;8.57;;;;;;;;;;5035262;28;20037;-80
2022/03/28 11:50:08;;;;;;;22.60;7.60;;;;;;;;;;5034636;28;20026;-78
2022/03/28 11:52:34;;;;;;;27.13;7.55;;;;;;;;;;5034868;28;20184;-78
2022/03/28 11:54:59;;;;;;;30.15;9.00;;;;;;;;;;5043020;28;20409;-78
2022/03/28 12:00:26;;;;;;;26.45;7.28;;;;;;;;;;5020993;28;20051;-78
2022/03/28 12:02:55;;;;;;;34.97;7.88;;;;;;;;;;5034823;28;20415;-78
2022/03/28 12:05:40;;;;;;;32.33;7.90;;;;;;;;;;5035738;28;20136;-80
2022/03/28 12:08:08;;;;;;;22.98;7.90;;;;;;;;;;5035798;28;20029;-78
2022/03/28 12:10:35;;;;;;;27.35;7.85;;;;;;;;;;5035663;28;20032;-77
2022/03/28 12:13:03;;;;;;;26.02;7.78;;;;;;;;;;5035329;28;20052;-78
2022/03/28 12:15:39;;;;;;;30.45;7.68;;;;;;;;;;5017446;28;20052;-78
2022/03/28 12:18:06;;;;;;;23.63;11.35;;;;;;;;;;5055957;28;20366;-76
2022/03/28 12:20:34;;;;;;;30.95;8.20;;;;;;;;;;5055076;28;20044;-77
2022/03/28 12:23:01;;;;;;;31.63;14.77;;;;;;;;;;5037671;28;20112;-77
2022/03/28 12:25:27;;;;;;;24.25;8.63;;;;;;;;;;5055293;28;20449;-78
2022/03/28 12:28:34;;;;;;;29.35;11.68;;;;;;;;;;5055185;28;20021;-77
2022/03/28 12:31:02;;;;;;;32.72;11.02;;;;;;;;;;5055155;28;20036;-77
2022/03/28 12:33:30;;;;;;;42.00;14.90;;;;;;;;;;5055297;28;20037;-78
2022/03/28 12:36:06;;;;;;;29.48;11.77;;;;;;;;;;5055573;28;20151;-78
2022/03/28 12:38:33;;;;;;;38.22;9.30;;;;;;;;;;5055535;28;20569;-76
2022/03/28 12:41:01;;;;;;;44.72;8.13;;;;;;;;;;5054978;28;20079;-77
2022/03/28 12:43:27;;;;;;;31.27;7.90;;;;;;;;;;5054122;28;20040;-77
2022/03/28 12:45:56;;;;;;;25.88;7.25;;;;;;;;;;5020930;28;20035;-77
2022/03/28 12:48:22;;;;;;;23.13;7.15;;;;;;;;;;5037107;28;20028;-77
2022/03/28 12:50:57;;;;;;;17.83;6.70;;;;;;;;;;5036997;28;20524;-78
2022/03/28 12:53:25;;;;;;;16.40;6.97;;;;;;;;;;5053546;28;20029;-78
2022/03/28 12:55:51;;;;;;;19.85;7.80;;;;;;;;;;5037333;28;20040;-78
2022/03/28 12:58:16;;;;;;;20.92;6.93;;;;;;;;;;5058969;28;20480;-78
2022/03/28 13:00:42;;;;;;;26.05;6.70;;;;;;;;;;5054505;28;20465;-77
2022/03/28 13:03:08;;;;;;;22.95;7.40;;;;;;;;;;5036709;28;20386;-77
2022/03/28 13:05:34;;;;;;;29.38;7.40;;;;;;;;;;5036808;28;20095;-78
2022/03/28 13:08:07;;;;;;;26.85;6.97;;;;;;;;;;5053043;28;20516;-77
2022/03/28 13:10:34;;;;;;;25.25;8.80;;;;;;;;;;5053704;28;20041;-78
2022/03/28 13:13:00;;;;;;;28.85;7.82;;;;;;;;;;5053954;28;20036;-77
2022/03/28 13:15:30;;;;;;;42.33;9.23;;;;;;;;;;5046318;28;20406;-78
2022/03/28 13:18:05;;;;;;;25.73;7.37;;;;;;;;;;5021177;28;20044;-78
2022/03/28 13:20:31;;;;;;;19.23;7.18;;;;;;;;;;5034363;28;20051;-77
2022/03/28 13:22:58;;;;;;;24.17;7.60;;;;;;;;;;5034177;28;20029;-78
2022/03/28 13:25:23;;;;;;;33.88;13.60;;;;;;;;;;5034205;28;20034;-81
2022/03/28 13:28:02;;;;;;;37.03;17.98;;;;;;;;;;5034195;28;20034;-82
2022/03/28 13:30:41;;;;;;;23.33;8.05;;;;;;;;;;5000636;28;20037;-80
2022/03/28 13:33:09;;;;;;;34.42;7.97;;;;;;;;;;5017768;28;20174;-81
2022/03/28 13:35:35;;;;;;;29.85;9.10;;;;;;;;;;5016882;28;20022;-81
2022/03/28 13:38:06;;;;;;;28.42;8.30;;;;;;;;;;5039708;28;20021;-81
2022/03/28 13:40:32;;;;;;;29.08;8.60;;;;;;;;;;5001765;28;20447;-81
2022/03/28 13:42:58;;;;;;;32.75;9.32;;;;;;;;;;5034452;28;20036;-82
2022/03/28 13:45:24;;;;;;;32.80;8.32;;;;;;;;;;5034343;28;20521;-81
2022/03/28 13:47:50;;;;;;;31.92;12.90;;;;;;;;;;5034086;28;20017;-82
2022/03/28 13:50:16;;;;;;;29.10;10.65;;;;;;;;;;5017658;28;20048;-82
2022/03/28 13:52:42;;;;;;;24.95;8.57;;;;;;;;;;5016632;28;20086;-82
2022/03/28 13:55:07;;;;;;;25.80;8.18;;;;;;;;;;5016545;28;20029;-81
2022/03/28 13:57:33;;;;;;;35.75;8.30;;;;;;;;;;5002746;28;20069;-82
2022/03/28 13:59:58;;;;;;;30.17;8.40;;;;;;;;;;5039975;28;20029;-82
2022/03/28 14:02:24;;;;;;;37.42;9.10;;;;;;;;;;5016158;28;20032;-82
2022/03/28 14:04:49;;;;;;;33.45;8.52;;;;;;;;;;5016255;28;20126;-85
2022/03/28 14:07:15;;;;;;;48.20;9.40;;;;;;;;;;5033914;28;20112;-82
2022/03/28 14:09:40;;;;;;;24.25;7.85;;;;;;;;;;5016210;28;20022;-83
2022/03/28 14:12:06;;;;;;;24.02;8.32;;;;;;;;;;5016447;28;20029;-82
2022/03/28 14:14:35;;;;;;;22.95;8.60;;;;;;;;;;5033658;28;20025;-81
2022/03/28 14:17:01;;;;;;;27.60;8.48;;;;;;;;;;4999841;28;20109;-83
2022/03/28 14:19:27;;;;;;;22.95;7.38;;;;;;;;;;5005758;28;20021;-80
2022/03/28 14:21:53;;;;;;;21.08;8.10;;;;;;;;;;5017274;28;20087;-77
2022/03/28 14:24:19;;;;;;;37.05;8.30;;;;;;;;;;5015596;28;20040;-77
2022/03/28 14:26:44;;;;;;;20.73;7.90;;;;;;;;;;5033295;28;20030;-76
2022/03/28 14:29:10;;;;;;;23.15;7.65;;;;;;;;;;5015929;28;20410;-77
2022/03/28 14:31:36;;;;;;;24.08;7.72;;;;;;;;;;5033186;28;20436;-78